Paron, Arkansas
Current Conditions -  °F | °C
As of 8:53 PM on Friday 21 Nov 2014 (Local Time) from KHOT Reporting Station
Haze Haze  
Wind Chill: 50°   Ceiling: 400
Heat Index: 50°   Visibility: 4mi
Dew Point: 49°   Wind: 8mph
Humidity: 96%   Direction: 120°ESE
Pressure: 30.22"   Gusts: NA
Location:  34.77°N, 92.76°W
Report Text: KHOT 220253Z AUTO 12007KT 4SM BR OVC004 10/09 A3022 RMK AO2 SLP234 60000 T01000094 58003
Loading
Personal Weather Stations






























Interactive Weather Map New forecast layout! Learn more

10-Day Weather Forecast

Advertisements
Track Severe Weather on mobile